Idaho Falls, ID

10:34 PM MDT on July 30, 2016 (GMT -0600)
Idaho Falls - East Lincoln Road/50th | | Change Station
Active Advisory: Fire Weather Warning

Elev 4767 ft 43.51 °N, 111.94 °W | Updated 4 seconds ago

Partly Cloudy
Partly Cloudy
75.7 °F
Feels Like 78 °F
N
1.3
Wind Variable Wind from WSW
Gusts 2.5 mph

Today
High -- | Low -- °F
--% Chance of Precip.
Yesterday
High -- | Low -- °F
Precip. -- in
Pressure 29.72 in
Visibility 10.0 miles
Clouds Few 12000 ft
Heat Index 78 °F
Dew Point 50 °F
Humidity 40%
Rainfall 0.00 in
Snow Depth Not available.
6:15 AM 8:51 PM
Waning Crescent, 9% visible
METAR KIDA 310353Z AUTO 20011KT 10SM FEW120 26/07 A2989 RMK AO2 SLP064 T02610072
Pressure 29.72 in
Visibility 10.0 miles
Clouds Few 12000 ft
Heat Index 78 °F
Dew Point 50 °F
Humidity 40%
Rainfall 0.00 in
Snow Depth Not available.
6:15 AM 8:51 PM
Waning Crescent, 9% visible
METAR KIDA 310353Z AUTO 20011KT 10SM FEW120 26/07 A2989 RMK AO2 SLP064 T02610072

10-Day Weather Forecast

Almanac

Astronomy

Jul. 30, 2016 Rise Set
Actual Time
Civil Twilight
Nautical Twilight
Astronomical Twilight
Moon
Length of Visible Light
Length of Day
Tomorrow will be .
, % of the Moon is Illuminated

Today's Extremes

State Highs State Lows

Community

WunderPhotos

Upload Photos

1,928,759 photos uploaded!

WunderBlog® & News

Nearby

Air Quality

  Air Quality AQ Index Pollutant
Not available.

Snow Depth

Station Depth Elevation

Earthquake Activity

City Distance Mag. Time & Date
Minimum magnitude displayed is 2.5.

Coastal Water Temperatures

Place Temperature

Stations

Nearby Weather Stations

Station Location Temp. Windchill Dew Point Humidity Wind Precip. Elev Updated Type
                   

Watches & Warnings

Fire Weather Warning
Issued: 10:20 PM MDT Jul. 30, 2016 – National Weather Service

... Red flag warning remains in effect from 1 PM to 8 PM MDT
Sunday for gusty winds and low humidity for fire weather zone
410...

* affected area... fire weather zone 410.

* Wind... southwest 15 to 25 mph with gusts to 35 mph.

* Humidity... 8 to 13 percent.

* Impacts... any fires that develop will likely spread rapidly.
Outdoor burning is not recommended.

Precautionary/preparedness actions...

A red flag warning means that critical fire weather conditions
are either occurring now... or will shortly. Fires may experience
rapid rates of growth. Please advise the appropriate officials or
fire crews in the field of the red flag warning for portions of
southeast Idaho.